Shorewood Beach, Washington
Current Conditions -  °F | °C
As of 7:53 PM on Friday 24 Oct 2014 (Local Time) from KTIW Reporting Station
Light Rain Light Rain  
Wind Chill: 52°   Ceiling: 6500
Heat Index: 52°   Visibility: 10mi
Dew Point: 47°   Wind: 12mph
Humidity: 83%   Direction: 10°N
Pressure: 29.84"   Gusts: NA
Location:  47.2495°N, 122.621°W
Report Text: KTIW 250253Z 01010KT 10SM -RA OVC065 11/08 A2984 RMK AO2 SLP105 P0002 60003 T01110083 56015
Loading
Personal Weather Stations






























Interactive Weather Map
Tropical Storm Tracking
New forecast layout! Learn more

10-Day Weather Forecast

Advertisements
Track Severe Weather on mobile